createdAt,value
2022-10-01T00:02:16.733Z,78688.00
2022-10-01T00:04:45.853Z,78704.56
2022-10-01T00:07:16.146Z,78682.72
2022-10-01T00:09:45.288Z,78709.00
2022-10-01T00:12:16.861Z,78699.91
2022-10-01T00:14:46.169Z,78710.44
2022-10-01T00:17:14.898Z,78688.84
2022-10-01T00:19:44.308Z,78710.50
2022-10-01T00:22:13.175Z,78709.06
2022-10-01T00:24:42.334Z,78719.06
2022-10-01T00:27:11.691Z,78714.47
2022-10-01T00:29:42.321Z,78713.13
2022-10-01T00:32:11.275Z,78709.97
2022-10-01T00:34:40.085Z,78692.31
2022-10-01T00:37:11.476Z,78709.63
2022-10-01T00:39:40.369Z,78697.19
2022-10-01T00:42:21.926Z,78722.09
2022-10-01T00:44:52.118Z,78722.19
2022-10-01T00:47:35.461Z,78710.50
2022-10-01T00:50:13.247Z,78717.78
2022-10-01T00:52:43.285Z,78730.81
2022-10-01T00:55:21.750Z,78713.88
2022-10-01T00:57:51.842Z,78728.50
2022-10-01T01:00:21.209Z,78720.75
2022-10-01T01:02:51.895Z,78696.72
2022-10-01T01:05:21.390Z,78727.06
2022-10-01T01:07:54.782Z,78732.53
2022-10-01T01:10:36.073Z,78719.16
2022-10-01T01:13:21.518Z,78735.91
2022-10-01T01:15:51.375Z,78735.56
2022-10-01T01:18:28.636Z,78698.69
2022-10-01T01:21:07.929Z,78740.72
2022-10-01T01:23:54.082Z,78744.00
2022-10-01T01:26:43.310Z,78745.84
2022-10-01T01:29:32.328Z,78753.97
2022-10-01T01:32:14.003Z,78743.66
2022-10-01T01:34:48.437Z,78752.75
2022-10-01T01:37:21.917Z,78767.63
2022-10-01T01:39:54.909Z,78725.66
2022-10-01T01:42:38.166Z,78752.25
2022-10-01T01:45:14.733Z,78768.97
2022-10-01T01:47:45.343Z,78762.59
2022-10-01T01:50:17.736Z,78766.00
2022-10-01T01:52:46.891Z,78777.28
2022-10-01T01:55:15.862Z,78774.91
2022-10-01T01:57:45.951Z,78756.00
2022-10-01T02:00:15.648Z,78764.38
2022-10-01T02:02:51.170Z,78781.50
2022-10-01T02:05:25.495Z,78784.09
2022-10-01T02:08:14.519Z,78782.22
2022-10-01T02:10:58.728Z,78792.97
2022-10-01T02:13:48.161Z,78782.53
2022-10-01T02:16:31.524Z,78788.38
2022-10-01T02:19:22.019Z,78786.38
2022-10-01T02:22:00.875Z,78794.59
2022-10-01T02:24:52.156Z,78790.31
2022-10-01T02:27:41.601Z,78787.19
2022-10-01T02:30:12.870Z,78785.25
2022-10-01T02:32:45.373Z,78778.31
2022-10-01T02:35:19.290Z,78790.31
2022-10-01T02:37:52.593Z,78799.56
2022-10-01T02:40:27.319Z,78792.75
2022-10-01T02:43:08.342Z,78794.16
2022-10-01T02:45:41.347Z,78793.94
2022-10-01T02:48:13.205Z,78810.25
2022-10-01T02:51:03.572Z,78800.06
2022-10-01T02:53:42.190Z,78799.31
2022-10-01T02:56:16.573Z,78814.81
2022-10-01T02:58:46.736Z,78815.59
2022-10-01T03:01:15.937Z,78815.03
2022-10-01T03:03:45.211Z,78820.97
2022-10-01T03:06:14.005Z,78833.50
2022-10-01T03:08:42.940Z,78819.69
2022-10-01T03:11:12.161Z,78830.63
2022-10-01T03:13:41.138Z,78840.63
2022-10-01T03:16:09.990Z,78827.25
2022-10-01T03:18:39.235Z,78823.91
2022-10-01T03:21:08.060Z,78833.81
2022-10-01T03:23:37.312Z,78846.50
2022-10-01T03:26:06.363Z,78828.19
2022-10-01T03:28:35.668Z,78854.19
2022-10-01T03:31:12.255Z,78866.22
2022-10-01T03:33:42.114Z,78843.06
2022-10-01T03:36:10.920Z,78833.84
2022-10-01T03:38:40.266Z,78857.34
2022-10-01T03:41:09.422Z,78836.50
2022-10-01T03:43:38.578Z,78853.06
2022-10-01T03:46:07.683Z,78852.59
2022-10-01T03:48:37.020Z,78858.22
2022-10-01T03:51:06.629Z,78870.38
2022-10-01T03:53:35.789Z,78842.00
2022-10-01T03:56:05.748Z,78858.63
2022-10-01T03:58:35.216Z,78841.59
2022-10-01T04:01:04.020Z,78870.78
2022-10-01T04:03:33.403Z,78859.47
2022-10-01T04:06:02.502Z,78874.09
2022-10-01T04:08:31.929Z,78860.34
2022-10-01T04:11:01.974Z,78872.75
2022-10-01T04:13:31.174Z,78873.69
2022-10-01T04:16:00.338Z,78890.84
2022-10-01T04:18:29.536Z,78889.84
2022-10-01T04:20:59.136Z,78887.78
2022-10-01T04:23:28.688Z,78882.81
2022-10-01T04:26:04.120Z,78897.13
2022-10-01T04:28:33.471Z,78881.03
2022-10-01T04:31:22.889Z,78882.94
2022-10-01T04:33:58.546Z,78869.25
2022-10-01T04:36:29.903Z,78888.03
2022-10-01T04:39:02.604Z,78888.38
2022-10-01T04:41:33.556Z,78860.38
2022-10-01T04:44:03.057Z,78874.09
2022-10-01T04:46:31.939Z,78870.78
2022-10-01T04:49:02.214Z,78877.59
2022-10-01T04:51:31.646Z,78882.75
2022-10-01T04:54:00.554Z,78884.53
2022-10-01T04:56:29.827Z,78876.63
2022-10-01T04:58:58.712Z,78885.72
2022-10-01T05:01:27.852Z,78875.56
2022-10-01T05:03:56.939Z,78873.25
2022-10-01T05:06:26.221Z,78884.13
2022-10-01T05:08:55.037Z,78876.06
2022-10-01T05:11:24.017Z,78861.41
2022-10-01T05:13:52.774Z,78858.47
2022-10-01T05:16:21.874Z,78866.09
2022-10-01T05:18:50.790Z,78861.47
2022-10-01T05:21:20.492Z,78865.38
2022-10-01T05:23:49.374Z,78856.47
2022-10-01T05:26:18.585Z,78870.38
2022-10-01T05:28:47.431Z,78874.59
2022-10-01T05:31:16.951Z,78878.41
2022-10-01T05:33:46.103Z,78871.66
2022-10-01T05:36:15.230Z,78874.03
2022-10-01T05:38:44.027Z,78855.72
2022-10-01T05:41:13.152Z,78836.19
2022-10-01T05:43:42.041Z,78848.72
2022-10-01T05:46:11.452Z,78858.56
2022-10-01T05:48:40.578Z,78844.50
2022-10-01T05:51:09.500Z,78829.28
2022-10-01T05:53:39.292Z,78843.22
2022-10-01T05:56:09.901Z,78846.41
2022-10-01T05:58:38.881Z,78850.66
2022-10-01T06:01:07.760Z,78854.97
2022-10-01T06:03:37.471Z,78824.69
2022-10-01T06:06:07.193Z,78832.22
2022-10-01T06:08:38.705Z,78826.38
2022-10-01T06:11:08.151Z,78837.09
2022-10-01T06:13:37.495Z,78838.63
2022-10-01T06:16:07.131Z,78821.66
2022-10-01T06:18:36.648Z,78833.44
2022-10-01T06:21:05.823Z,78831.47
2022-10-01T06:23:35.618Z,78841.00
2022-10-01T06:26:06.906Z,78836.34
2022-10-01T06:28:36.145Z,78838.66
2022-10-01T06:31:05.513Z,78834.44
2022-10-01T06:33:34.728Z,78826.41
2022-10-01T06:36:06.086Z,78827.63
2022-10-01T06:38:35.250Z,78832.28
2022-10-01T06:41:07.209Z,78818.91
2022-10-01T06:43:36.369Z,78827.59
2022-10-01T06:46:06.617Z,78811.72
2022-10-01T06:48:37.458Z,78817.31
2022-10-01T06:51:06.910Z,78841.59
2022-10-01T06:53:36.313Z,78836.63
2022-10-01T06:56:08.087Z,78810.59
2022-10-01T06:58:38.311Z,78812.53
2022-10-01T07:01:07.468Z,78820.94
2022-10-01T07:03:36.815Z,78814.75
2022-10-01T07:06:08.882Z,78813.56
2022-10-01T07:08:38.129Z,78816.31
2022-10-01T07:11:06.969Z,78802.34
2022-10-01T07:13:36.049Z,78799.78
2022-10-01T07:16:05.869Z,78802.53
2022-10-01T07:18:34.941Z,78797.88
2022-10-01T07:21:03.739Z,78794.28
2022-10-01T07:23:32.822Z,78788.19
2022-10-01T07:26:01.789Z,78774.47
2022-10-01T07:28:30.794Z,78782.84
2022-10-01T07:31:02.921Z,78795.94
2022-10-01T07:33:32.149Z,78774.97
2022-10-01T07:36:06.929Z,78789.88
2022-10-01T07:38:36.650Z,78791.19
2022-10-01T07:41:05.772Z,78772.44
2022-10-01T07:43:37.189Z,78757.44
2022-10-01T07:46:08.073Z,78767.38
2022-10-01T07:48:37.162Z,78755.72
2022-10-01T07:51:06.059Z,78777.00
2022-10-01T07:53:35.418Z,78760.44
2022-10-01T07:56:05.449Z,78771.59
2022-10-01T07:58:35.471Z,78769.28
2022-10-01T08:01:07.504Z,78764.88
2022-10-01T08:03:37.291Z,78763.13
2022-10-01T08:06:07.838Z,78760.47
2022-10-01T08:08:37.852Z,78735.41
2022-10-01T08:11:09.711Z,78745.69
2022-10-01T08:13:39.225Z,78737.72
2022-10-01T08:16:10.730Z,78733.34
2022-10-01T08:18:41.951Z,78721.16
2022-10-01T08:21:11.694Z,78717.84
2022-10-01T08:23:40.929Z,78718.00
2022-10-01T08:26:10.069Z,78689.00
2022-10-01T08:28:38.959Z,78717.44
2022-10-01T08:31:08.503Z,78719.94
2022-10-01T08:33:40.006Z,78705.41
2022-10-01T08:36:09.599Z,78717.72
2022-10-01T08:38:41.153Z,78708.09
2022-10-01T08:41:35.809Z,78720.50
2022-10-01T08:44:08.629Z,78734.47
2022-10-01T08:46:38.947Z,78721.34
2022-10-01T08:49:46.327Z,78715.03
2022-10-01T08:52:29.651Z,78705.03
2022-10-01T08:55:11.945Z,78705.75
2022-10-01T08:57:52.911Z,78684.03
2022-10-01T09:00:23.503Z,78680.53
2022-10-01T09:03:16.153Z,78678.00
2022-10-01T09:06:03.826Z,78694.50
2022-10-01T09:08:52.083Z,78696.97
2022-10-01T09:11:40.104Z,78691.56
2022-10-01T09:14:30.198Z,78700.78
2022-10-01T09:17:25.023Z,78682.44
2022-10-01T09:20:26.985Z,78676.06
2022-10-01T09:23:08.223Z,78690.25
2022-10-01T09:25:40.223Z,78678.81
2022-10-01T09:28:17.737Z,78671.59
2022-10-01T09:31:01.857Z,78672.84
2022-10-01T09:33:38.092Z,78652.63
2022-10-01T09:36:19.664Z,78648.50
2022-10-01T09:39:11.699Z,78633.75
2022-10-01T09:41:41.463Z,78640.94
2022-10-01T09:44:19.108Z,78628.69
2022-10-01T09:46:48.892Z,78631.47
2022-10-01T09:49:34.853Z,78645.69
2022-10-01T09:52:29.630Z,78644.59
2022-10-01T09:55:22.920Z,78631.84
2022-10-01T09:58:18.751Z,78642.56
2022-10-01T10:00:52.764Z,78649.91
2022-10-01T10:03:31.886Z,78635.56
2022-10-01T10:06:01.822Z,78640.00
2022-10-01T10:08:38.031Z,78655.53
2022-10-01T10:11:12.439Z,78640.31
2022-10-01T10:13:50.605Z,78643.28
2022-10-01T10:16:27.362Z,78632.78
2022-10-01T10:19:00.502Z,78621.75
2022-10-01T10:21:33.323Z,78630.50
2022-10-01T10:24:05.395Z,78636.91
2022-10-01T10:26:40.043Z,78622.84
2022-10-01T10:29:32.021Z,78628.44
2022-10-01T10:32:06.063Z,78600.69
2022-10-01T10:34:42.130Z,78606.00
2022-10-01T10:37:19.251Z,78606.22
2022-10-01T10:39:52.392Z,78611.31
2022-10-01T10:42:24.543Z,78588.06
2022-10-01T10:44:56.434Z,78605.09
2022-10-01T10:47:31.744Z,78607.69
2022-10-01T10:50:06.944Z,78604.59
2022-10-01T10:52:39.996Z,78584.28
2022-10-01T10:55:32.161Z,78600.59
2022-10-01T10:58:16.436Z,78598.53
2022-10-01T11:00:50.827Z,78599.66
2022-10-01T11:03:25.503Z,78583.63
2022-10-01T11:05:57.360Z,78586.31
2022-10-01T11:08:30.747Z,78592.84
2022-10-01T11:11:25.455Z,78596.16
2022-10-01T11:14:31.992Z,78594.84
2022-10-01T11:17:25.751Z,78595.97
2022-10-01T11:20:10.736Z,78599.94
2022-10-01T11:23:15.741Z,78596.28
2022-10-01T11:25:54.471Z,78598.31
2022-10-01T11:28:35.348Z,78599.19
2022-10-01T11:31:41.723Z,78605.44
2022-10-01T11:34:38.758Z,78603.22
2022-10-01T11:37:45.927Z,78605.53
2022-10-01T11:40:26.091Z,78601.84
2022-10-01T11:43:10.523Z,78602.69
2022-10-01T11:45:47.451Z,78595.09
2022-10-01T11:48:45.585Z,78590.94
2022-10-01T11:51:22.046Z,78600.25
2022-10-01T11:53:56.630Z,78588.72
2022-10-01T11:57:00.737Z,78583.19
2022-10-01T11:59:42.785Z,78584.03
2022-10-01T12:02:35.537Z,78608.97
2022-10-01T12:05:18.095Z,78587.00
2022-10-01T12:08:13.385Z,78609.25
2022-10-01T12:10:51.074Z,78599.28
2022-10-01T12:13:34.346Z,78602.63
2022-10-01T12:16:42.035Z,78604.47
2022-10-01T12:19:17.251Z,78611.72
2022-10-01T12:21:56.137Z,78612.72
2022-10-01T12:24:40.274Z,78611.22
2022-10-01T12:27:28.150Z,78614.09
2022-10-01T12:30:09.733Z,78613.06
2022-10-01T12:33:35.240Z,78605.41
2022-10-01T12:36:20.711Z,78599.22
2022-10-01T12:39:05.191Z,78605.09
2022-10-01T12:42:16.756Z,78592.25
2022-10-01T12:45:25.244Z,78594.53
2022-10-01T12:48:16.694Z,78593.06
2022-10-01T12:51:18.630Z,78611.84
2022-10-01T12:54:13.539Z,78608.66
2022-10-01T12:56:52.712Z,78606.22
2022-10-01T12:59:31.094Z,78606.47
2022-10-01T13:02:18.499Z,78607.19
2022-10-01T13:05:08.981Z,78598.63
2022-10-01T13:07:50.634Z,78607.13
2022-10-01T13:10:41.450Z,78618.03
2022-10-01T13:13:23.858Z,78611.53
2022-10-01T13:16:04.508Z,78603.22
2022-10-01T13:19:00.813Z,78622.94
2022-10-01T13:21:35.938Z,78636.47
2022-10-01T13:24:13.820Z,78633.78
2022-10-01T13:26:49.153Z,78635.34
2022-10-01T13:29:47.706Z,78635.00
2022-10-01T13:32:28.120Z,78630.34
2022-10-01T13:35:00.392Z,78624.56
2022-10-01T13:37:39.907Z,78630.53
2022-10-01T13:40:42.526Z,78628.38
2022-10-01T13:43:24.658Z,78628.31
2022-10-01T13:45:57.229Z,78608.41
2022-10-01T13:48:38.070Z,78625.78
2022-10-01T13:51:14.594Z,78632.94
2022-10-01T13:53:43.676Z,78639.69
2022-10-01T13:56:16.426Z,78643.34
2022-10-01T13:58:47.142Z,78638.56
2022-10-01T14:01:24.210Z,78646.38
2022-10-01T14:04:22.943Z,78645.97
2022-10-01T14:07:32.075Z,78651.94
2022-10-01T14:10:03.583Z,78645.16
2022-10-01T14:12:53.392Z,78644.59
2022-10-01T14:15:40.182Z,78665.69
2022-10-01T14:18:22.437Z,78655.25
2022-10-01T14:21:19.179Z,78653.88
2022-10-01T14:24:06.399Z,78664.31
2022-10-01T14:26:52.095Z,78667.09
2022-10-01T14:29:47.116Z,78661.28
2022-10-01T14:32:49.866Z,78654.53
2022-10-01T14:35:36.635Z,78671.06
2022-10-01T14:38:13.499Z,78648.78
2022-10-01T14:40:48.967Z,78658.09
2022-10-01T14:43:30.310Z,78656.97
2022-10-01T14:46:08.041Z,78662.25
2022-10-01T14:48:41.791Z,78655.72
2022-10-01T14:51:29.881Z,78667.84
2022-10-01T14:54:01.449Z,78669.00
2022-10-01T14:56:31.153Z,78654.66
2022-10-01T14:59:04.213Z,78651.06
2022-10-01T15:01:33.541Z,78644.25
2022-10-01T15:04:02.903Z,78654.28
2022-10-01T15:06:42.375Z,78639.38
2022-10-01T15:09:19.540Z,78641.84
2022-10-01T15:11:52.692Z,78634.69
2022-10-01T15:14:25.549Z,78617.72
2022-10-01T15:16:54.950Z,78641.59
2022-10-01T15:19:24.981Z,78660.81
2022-10-01T15:22:03.169Z,78674.00
2022-10-01T15:24:47.852Z,78673.41
2022-10-01T15:27:21.609Z,78682.03
2022-10-01T15:29:57.576Z,78678.75
2022-10-01T15:32:29.430Z,78655.75
2022-10-01T15:35:03.270Z,78691.06
2022-10-01T15:37:37.740Z,78685.50
2022-10-01T15:40:21.843Z,78684.47
2022-10-01T15:43:13.983Z,78688.41
2022-10-01T15:45:43.375Z,78692.75
2022-10-01T15:48:31.399Z,78689.28
2022-10-01T15:51:25.343Z,78683.19
2022-10-01T15:53:55.411Z,78670.41
2022-10-01T15:56:26.351Z,78655.09
2022-10-01T15:59:01.021Z,78629.25
2022-10-01T16:01:39.436Z,78675.56
2022-10-01T16:04:14.793Z,78683.91
2022-10-01T16:06:50.356Z,78684.78
2022-10-01T16:09:24.951Z,78685.06
2022-10-01T16:12:04.449Z,78688.31
2022-10-01T16:14:44.695Z,78681.44
2022-10-01T16:17:20.278Z,78674.56
2022-10-01T16:19:54.871Z,78656.47
2022-10-01T16:22:26.231Z,78697.13
2022-10-01T16:25:08.859Z,78696.69
2022-10-01T16:27:55.979Z,78702.72
2022-10-01T16:30:28.052Z,78693.19
2022-10-01T16:33:01.113Z,78701.91
2022-10-01T16:35:33.955Z,78736.44
2022-10-01T16:38:07.619Z,78718.41
2022-10-01T16:40:48.930Z,78731.84
2022-10-01T16:43:26.153Z,78733.56
2022-10-01T16:45:55.969Z,78720.88
2022-10-01T16:48:24.922Z,78697.03
2022-10-01T16:50:54.723Z,78718.91
2022-10-01T16:53:25.812Z,78710.91
2022-10-01T16:55:59.004Z,78704.44
2022-10-01T16:58:30.345Z,78757.03
2022-10-01T17:00:59.768Z,78748.31
2022-10-01T17:03:28.810Z,78762.13
2022-10-01T17:05:58.077Z,78735.41
2022-10-01T17:08:27.351Z,78779.16
2022-10-01T17:11:00.908Z,78775.41
2022-10-01T17:13:33.627Z,78741.66
2022-10-01T17:16:03.335Z,78804.41
2022-10-01T17:18:32.222Z,78826.50
2022-10-01T17:21:04.851Z,78833.25
2022-10-01T17:23:36.352Z,78845.56
2022-10-01T17:26:10.428Z,78864.09
2022-10-01T17:28:39.440Z,78855.59
2022-10-01T17:31:09.287Z,78841.78
2022-10-01T17:33:40.056Z,78837.34
2022-10-01T17:36:10.751Z,78850.13
2022-10-01T17:38:41.274Z,78844.97
2022-10-01T17:41:10.446Z,78812.72
2022-10-01T17:43:40.315Z,78811.03
2022-10-01T17:46:09.476Z,78792.47
2022-10-01T17:48:38.428Z,78816.63
2022-10-01T17:51:10.708Z,78827.34
2022-10-01T17:53:42.421Z,78781.66
2022-10-01T17:56:16.894Z,78804.78
2022-10-01T17:58:46.748Z,78814.34
2022-10-01T18:01:20.591Z,78819.06
2022-10-01T18:03:53.617Z,78801.97
2022-10-01T18:06:24.233Z,78795.88
2022-10-01T18:08:56.266Z,78785.22
2022-10-01T18:11:28.897Z,78798.56
2022-10-01T18:13:59.510Z,78808.84
2022-10-01T18:16:29.646Z,78741.66
2022-10-01T18:21:53.440Z,78779.16
2022-10-01T18:24:22.723Z,78655.31
2022-10-01T18:26:51.859Z,78698.84
2022-10-01T18:29:24.321Z,78673.47
2022-10-01T18:32:03.334Z,78693.97
2022-10-01T18:34:55.571Z,78687.94
2022-10-01T18:37:24.624Z,78712.34
2022-10-01T18:40:23.875Z,78710.38
2022-10-01T18:43:15.283Z,78709.75
2022-10-01T18:45:56.518Z,78709.41
2022-10-01T18:48:37.467Z,78693.47
2022-10-01T18:51:41.518Z,78695.53
2022-10-01T18:54:23.271Z,78689.72
2022-10-01T18:57:10.834Z,78706.44
2022-10-01T18:59:58.570Z,78708.78
2022-10-01T19:02:56.246Z,78684.22
2022-10-01T19:05:53.899Z,78675.63
2022-10-01T19:08:53.724Z,78684.59
2022-10-01T19:11:43.653Z,78687.47
2022-10-01T19:14:27.959Z,78707.53
2022-10-01T19:17:23.062Z,78702.97
2022-10-01T19:20:11.893Z,78705.69
2022-10-01T19:23:15.479Z,78699.84
2022-10-01T19:25:57.185Z,78695.22
2022-10-01T19:28:55.532Z,78673.75
2022-10-01T19:31:34.897Z,78678.31
2022-10-01T19:34:20.068Z,78674.56
2022-10-01T19:36:57.285Z,78689.31
2022-10-01T19:39:31.429Z,78699.38
2022-10-01T19:42:08.028Z,78694.22
2022-10-01T19:44:55.188Z,78708.78
2022-10-01T19:47:33.567Z,78702.03
2022-10-01T19:50:13.871Z,78704.06
2022-10-01T19:52:47.105Z,78704.81
2022-10-01T19:55:18.856Z,78700.63
2022-10-01T19:57:49.072Z,78705.38
2022-10-01T20:00:23.393Z,78687.50
2022-10-01T20:03:20.404Z,78696.94
2022-10-01T20:06:00.084Z,78708.78
2022-10-01T20:08:48.965Z,78717.81
2022-10-01T20:11:56.640Z,78711.13
2022-10-01T20:15:12.594Z,78701.31
2022-10-01T20:18:14.041Z,78723.31
2022-10-01T20:20:49.630Z,78720.53
2022-10-01T20:23:21.709Z,78718.31
2022-10-01T20:26:04.621Z,78704.47
2022-10-01T20:29:05.547Z,78729.38
2022-10-01T20:31:45.823Z,78722.34
2022-10-01T20:34:33.028Z,78733.59
2022-10-01T20:37:11.280Z,78721.16
2022-10-01T20:39:47.239Z,78714.13
2022-10-01T20:42:34.674Z,78697.94
2022-10-01T20:45:06.571Z,78693.88
2022-10-01T20:47:43.719Z,78684.06
2022-10-01T20:50:21.907Z,78679.19
2022-10-01T20:52:58.760Z,78649.59
2022-10-01T20:55:39.890Z,78644.28
2022-10-01T20:58:19.565Z,78648.72
2022-10-01T21:00:51.823Z,78643.06
2022-10-01T21:03:27.314Z,78645.81
2022-10-01T21:06:02.355Z,78633.44
2022-10-01T21:08:39.250Z,78660.75
2022-10-01T21:11:34.401Z,78632.66
2022-10-01T21:14:15.134Z,78662.69
2022-10-01T21:16:46.929Z,78664.44
2022-10-01T21:19:39.972Z,78665.50
2022-10-01T21:22:27.373Z,78667.25
2022-10-01T21:25:20.192Z,78668.72
2022-10-01T21:28:16.475Z,78662.41
2022-10-01T21:31:04.109Z,78666.31
2022-10-01T21:33:47.750Z,78660.56
2022-10-01T21:36:52.964Z,78637.81
2022-10-01T21:39:43.568Z,78672.09
2022-10-01T21:42:28.056Z,78670.22
2022-10-01T21:45:21.737Z,78655.06
2022-10-01T21:48:00.154Z,78650.53
2022-10-01T21:50:45.752Z,78607.88
2022-10-01T21:53:29.023Z,78671.47
2022-10-01T21:56:22.397Z,78671.41
2022-10-01T21:59:30.137Z,78659.38
2022-10-01T22:02:08.141Z,78660.19
2022-10-01T22:04:50.630Z,78661.00
2022-10-01T22:07:37.942Z,78663.63
2022-10-01T22:10:39.762Z,78667.53
2022-10-01T22:13:18.683Z,78647.31
2022-10-01T22:15:50.120Z,78660.63
2022-10-01T22:18:37.492Z,78676.66
2022-10-01T22:21:12.300Z,78664.34
2022-10-01T22:23:50.111Z,78675.13
2022-10-01T22:26:25.444Z,78679.84
2022-10-01T22:28:56.990Z,78680.50
2022-10-01T22:31:32.528Z,78668.66
2022-10-01T22:34:05.165Z,78682.22
2022-10-01T22:37:04.656Z,78671.72
2022-10-01T22:39:41.487Z,78682.81
2022-10-01T22:42:32.558Z,78681.94
2022-10-01T22:45:10.446Z,78688.47
2022-10-01T22:48:08.859Z,78678.13
2022-10-01T22:50:46.901Z,78688.94
2022-10-01T22:53:38.092Z,78692.50
2022-10-01T22:56:07.832Z,78683.19
2022-10-01T22:58:49.966Z,78697.25
2022-10-01T23:01:51.723Z,78693.47
2022-10-01T23:04:32.686Z,78698.31
2022-10-01T23:07:46.527Z,78680.22
2022-10-01T23:10:29.373Z,78696.19
2022-10-01T23:13:17.333Z,78698.78
2022-10-01T23:15:58.473Z,78702.94
2022-10-01T23:18:45.760Z,78697.50
2022-10-01T23:21:37.757Z,78694.28
2022-10-01T23:24:34.393Z,78695.50
2022-10-01T23:27:50.649Z,78707.34
2022-10-01T23:30:22.068Z,78712.53
2022-10-01T23:33:29.331Z,78710.91
2022-10-01T23:36:12.840Z,78712.56
2022-10-01T23:38:58.995Z,78723.88
2022-10-01T23:42:03.530Z,78722.09
2022-10-01T23:44:48.894Z,78706.72
2022-10-01T23:47:25.640Z,78714.81
2022-10-01T23:50:00.998Z,78720.25
2022-10-01T23:52:39.156Z,78713.97
2022-10-01T23:55:41.230Z,78697.53
2022-10-01T23:58:16.080Z,78727.78
